Date,TemperatureHighF,TemperatureAvgF,TemperatureLowF,DewpointHighF,DewpointAvgF,DewpointLowF,HumidityHigh,HumidityAvg,HumidityLow,PressureMaxIn,PressureMinIn,WindSpeedMaxMPH,WindSpeedAvgMPH,GustSpeedMaxMPH,PrecipitationSumIn
2012-12-1,70,60,49,56,51,41,91,74,60,29.46,29.28,14,5,18,0.00
2012-12-2,74,66,62,60,58,54,89,75,60,29.37,29.28,14,4,19,0.00
2012-12-3,74,67,62,61,59,56,91,76,56,29.35,29.19,17,6,28,0.00
2012-12-4,65,52,38,58,45,36,92,78,52,29.65,29.26,9,2,16,0.29
2012-12-5,55,44,32,38,35,31,95,73,51,29.74,29.51,7,2,9,0.00
2012-12-6,53,47,39,43,38,34,82,73,60,29.51,29.28,8,3,10,0.00
2012-12-7,56,51,47,51,47,42,94,87,78,29.29,29.16,7,2,12,0.11
2012-12-8,49,45,42,47,42,39,95,88,81,29.35,29.22,8,3,13,0.04
2012-12-9,51,45,36,48,43,31,96,90,76,29.30,29.13,12,4,20,0.19
2012-12-10,35,29,26,30,21,19,80,74,66,29.45,29.25,14,7,19,0.00
2012-12-11,42,30,21,23,20,18,89,70,41,29.60,29.45,10,2,14,0.00
2012-12-12,51,38,26,27,23,19,78,56,30,29.71,29.60,8,2,12,0.00
2012-12-13,57,42,33,26,25,21,73,53,25,29.68,29.54,10,2,15,0.00
2012-12-14,59,46,33,39,30,25,80,55,31,29.59,29.33,11,2,12,0.03
2012-12-15,65,52,43,50,46,38,93,80,55,29.32,28.94,18,6,32,0.09
2012-12-16,54,47,40,45,41,38,92,82,69,29.11,29.01,5,2,8,0.00
2012-12-17,41,40,37,39,37,33,94,89,81,29.17,29.05,13,3,14,0.03
2012-12-18,60,45,34,38,34,31,92,69,41,29.29,29.03,12,4,20,0.01
2012-12-19,51,40,31,47,35,28,90,83,75,29.37,28.87,13,5,18,0.15
2012-12-20,55,38,27,52,32,19,95,81,68,29.34,28.60,29,14,48,0.05
2012-12-21,36,29,25,19,16,14,71,59,43,29.69,29.35,18,9,33,0.00
2012-12-22,48,34,20,26,20,16,87,59,36,29.68,29.32,10,3,13,0.00
2012-12-23,50,40,31,33,28,24,86,64,43,29.33,29.23,6,2,6,0.00
2012-12-24,34,29,23,31,24,16,90,84,74,29.53,29.19,12,5,18,0.00
2012-12-25,33,28,22,26,22,16,87,80,72,29.65,29.38,13,4,21,0.00
2012-12-26,32,30,28,25,23,21,84,77,71,29.56,29.32,13,6,24,0.00
2012-12-27,34,30,27,24,23,21,82,75,64,29.59,29.45,12,3,13,0.00
2012-12-28,36,32,30,31,28,24,94,85,76,29.45,29.27,9,2,11,0.00
2012-12-29,33,28,18,29,22,15,88,78,62,29.73,29.30,13,5,21,0.00
2012-12-30,42,31,20,27,22,16,86,70,47,29.82,29.58,9,3,14,0.00
2012-12-31,38,35,31,33,28,22,95,80,57,29.60,29.45,9,2,16,0.08